プーケット の空港の天気 - METARとTAF

プーケット国際空港 ( VTSP / HKT ) - タイ プーケット県
飛行場実況気象(Metar)
観測時間10/19 06:00 ICT (10/18 23:00 UTC)
風向・風速静穏 0m/s
視程10km以上
天気現象
少しの雲 雲底高度 760m
気温23℃
湿度94%
気圧1011hPa
METARVTSP 182300Z 00000KT 9999 FEW025 23/22 Q1011 NOSIG
過去の天気等 Google飛行場航空写真 Wunderground天気予報

過去48時間のMETAR

飛行場予報(TAF)
発表時間: 10/19 00:00 ICT (10/18 17:00 UTC)
予報対象時間: 19日1時 ICT ~ 20日7時 ICT
風向・風速不定 2m/s
視程10km以上
少しの雲 雲底高度 610m
19日9時 ICT ~ 19日11時 ICT に徐々に
風向・風速西 5m/s
19日17時 ICT ~ 19日19時 ICT に徐々に
風向・風速静穏
TAF VTSP 181700Z 1818/1924 VRB03KT 9999 FEW020
BECMG 1902/1904 28010KT
BECMG 1910/1912 00000KT